Leopold Ld — 9HA3383 — position and weather

sailwx.info

Track history (hours):
 
Tides and Currents Weather Stations Pressure Air Temp Water Temp Dewpoint Dewpoint Depression Visibility Wind Speed Wind Dir Waves Ship Positions

Leopold Ld

Last reported at 2017-Nov-23 04:11 UTC. Time now 2017-Nov-24 11:19 UTC.
Position N 10°23' W 014°46'.

Length 292 m; draft 8.5 m.

Type: Cargo ship. MMSI: 229531000.

Date/timePositionNaut miles runAvg speedWind from/ knotsBaromVisibWave heightAir tempDewpointWater temp
2017-Nov-23 04:11N 10°23' W 014°46'0 0.0
2017-Nov-23 00:53N 10°23' W 014°46'  
2017-Nov-19 03:09N 10°03' W 015°42'212.5
2017-Nov-19 03:00N 10°03' W 015°44'713.7
2017-Nov-19 02:30N 10°04' W 015°50'  
2017-Nov-15 15:44N 27°22' W 014°15'414.5
2017-Nov-15 15:28N 27°25' W 014°12'714.5
2017-Nov-15 15:00N 27°31' W 014°08'715.0
2017-Nov-15 14:30N 27°36' W 014°02'815.4
2017-Nov-15 13:59N 27°42' W 013°56'715.1
2017-Nov-15 13:30N 27°48' W 013°51'2414.6
2017-Nov-15 11:51N 28°06' W 013°33'1914.4
2017-Nov-15 10:33N 28°21' W 013°21'114.1
2017-Nov-15 10:30N 28°22' W 013°21'714.1
2017-Nov-15 09:59N 28°28' W 013°16'714.1
2017-Nov-15 09:30N 28°34' W 013°12'814.1
2017-Nov-15 08:58N 28°40' W 013°07'714.1
2017-Nov-15 08:26N 28°46' W 013°03'614.6
2017-Nov-15 08:00N 28°51' W 012°58'  
Track history (hours):
 
Tides and Currents Weather Stations Pressure Air Temp Water Temp Dewpoint Dewpoint Depression Visibility Wind Speed Wind Dir Waves Ship Positions

Leopold Ld

Last reported at 2017-Nov-23 04:11 UTC. Time now 2017-Nov-24 11:19 UTC.
Position N 10°23' W 014°46'.

Length 292 m; draft 8.5 m.

Type: Cargo ship. MMSI: 229531000.

Date/timePositionNaut miles runAvg speedWind from/ knotsBaromVisibWave heightAir tempDewpointWater temp
2017-Nov-23 04:11N 10°23' W 014°46'0 0.0
2017-Nov-23 00:53N 10°23' W 014°46'  
2017-Nov-19 03:09N 10°03' W 015°42'212.5
2017-Nov-19 03:00N 10°03' W 015°44'713.7
2017-Nov-19 02:30N 10°04' W 015°50'  
2017-Nov-15 15:44N 27°22' W 014°15'414.5
2017-Nov-15 15:28N 27°25' W 014°12'714.5
2017-Nov-15 15:00N 27°31' W 014°08'715.0
2017-Nov-15 14:30N 27°36' W 014°02'815.4
2017-Nov-15 13:59N 27°42' W 013°56'715.1
2017-Nov-15 13:30N 27°48' W 013°51'2414.6
2017-Nov-15 11:51N 28°06' W 013°33'1914.4
2017-Nov-15 10:33N 28°21' W 013°21'114.1
2017-Nov-15 10:30N 28°22' W 013°21'714.1
2017-Nov-15 09:59N 28°28' W 013°16'714.1
2017-Nov-15 09:30N 28°34' W 013°12'814.1
2017-Nov-15 08:58N 28°40' W 013°07'714.1
2017-Nov-15 08:26N 28°46' W 013°03'614.6
2017-Nov-15 08:00N 28°51' W 012°58'  

Dump ship's entire track history